createdAt,value
2018-09-08T00:00:09.795Z,23.91
2018-09-08T00:00:41.389Z,23.94
2018-09-08T00:01:12.994Z,23.98
2018-09-08T00:01:44.591Z,24.02
2018-09-08T00:02:16.185Z,24.04
2018-09-08T00:02:47.785Z,24.06
2018-09-08T00:03:19.368Z,24.08
2018-09-08T00:03:50.982Z,24.09
2018-09-08T00:04:22.581Z,24.11
2018-09-08T00:04:54.169Z,24.11
2018-09-08T00:05:25.755Z,24.12
2018-09-08T00:05:57.356Z,24.13
2018-09-08T00:06:28.961Z,24.13
2018-09-08T00:07:00.565Z,24.13
2018-09-08T00:07:32.137Z,24.14
2018-09-08T00:08:04.054Z,24.14
2018-09-08T00:08:35.713Z,24.14
2018-09-08T00:09:07.300Z,24.14
2018-09-08T00:09:38.897Z,24.14
2018-09-08T00:10:10.494Z,24.14
2018-09-08T00:10:42.085Z,24.15
2018-09-08T00:11:13.685Z,24.11
2018-09-08T00:11:45.270Z,24.09
2018-09-08T00:12:16.859Z,24.14
2018-09-08T00:12:48.443Z,24.16
2018-09-08T00:13:20.033Z,24.16
2018-09-08T00:13:51.662Z,24.17
2018-09-08T00:14:23.329Z,24.19
2018-09-08T00:14:54.447Z,24.19
2018-09-08T00:15:31.809Z,24.19
2018-09-08T00:16:09.107Z,24.20
2018-09-08T00:16:46.588Z,24.20
2018-09-08T00:17:23.816Z,24.20
2018-09-08T00:18:01.002Z,24.20
2018-09-08T00:18:38.290Z,24.21
2018-09-08T00:19:15.445Z,24.20
2018-09-08T00:19:52.631Z,24.20
2018-09-08T00:20:29.819Z,24.20
2018-09-08T00:21:07.053Z,24.20
2018-09-08T00:21:44.303Z,24.20
2018-09-08T00:22:21.448Z,24.19
2018-09-08T00:22:58.614Z,24.19
2018-09-08T00:23:35.847Z,24.20
2018-09-08T00:24:13.020Z,24.21
2018-09-08T00:24:50.253Z,24.21
2018-09-08T00:25:27.554Z,24.20
2018-09-08T00:26:04.805Z,24.20
2018-09-08T00:26:35.915Z,24.20
2018-09-08T00:27:07.027Z,24.20
2018-09-08T00:27:38.601Z,24.19
2018-09-08T00:28:10.188Z,24.19
2018-09-08T00:28:41.781Z,24.19
2018-09-08T00:29:13.417Z,24.18
2018-09-08T00:29:45.004Z,24.18
2018-09-08T00:30:16.587Z,24.18
2018-09-08T00:30:48.181Z,24.18
2018-09-08T00:31:19.853Z,24.19
2018-09-08T00:31:51.450Z,24.19
2018-09-08T00:32:23.057Z,24.19
2018-09-08T00:32:54.643Z,24.19
2018-09-08T00:33:26.228Z,24.19
2018-09-08T00:33:57.811Z,24.19
2018-09-08T00:34:29.398Z,24.19
2018-09-08T00:35:00.998Z,24.18
2018-09-08T00:35:32.588Z,24.19
2018-09-08T00:36:04.167Z,24.18
2018-09-08T00:36:35.813Z,24.18
2018-09-08T00:37:07.399Z,24.18
2018-09-08T00:37:38.978Z,24.18
2018-09-08T00:38:10.577Z,24.17
2018-09-08T00:38:42.163Z,24.17
2018-09-08T00:39:13.771Z,24.17
2018-09-08T00:39:45.355Z,24.17
2018-09-08T00:40:16.940Z,24.17
2018-09-08T00:40:48.527Z,24.14
2018-09-08T00:41:20.125Z,24.17
2018-09-08T00:41:51.726Z,24.17
2018-09-08T00:42:23.330Z,24.16
2018-09-08T00:42:54.916Z,24.16
2018-09-08T00:43:26.513Z,24.17
2018-09-08T00:43:58.103Z,24.16
2018-09-08T00:44:29.697Z,24.16
2018-09-08T00:45:01.277Z,24.15
2018-09-08T00:45:32.911Z,24.15
2018-09-08T00:46:04.503Z,24.16
2018-09-08T00:46:36.151Z,24.14
2018-09-08T00:47:07.743Z,24.15
2018-09-08T00:47:39.337Z,24.15
2018-09-08T00:48:10.942Z,24.15
2018-09-08T00:48:42.589Z,24.15
2018-09-08T00:49:14.184Z,24.15
2018-09-08T00:49:45.771Z,24.15
2018-09-08T00:50:17.356Z,24.14
2018-09-08T00:50:48.954Z,24.14
2018-09-08T00:51:20.558Z,24.14
2018-09-08T00:51:52.158Z,24.13
2018-09-08T00:52:23.761Z,24.12
2018-09-08T00:52:55.355Z,24.13
2018-09-08T00:53:27.236Z,24.12
2018-09-08T00:53:59.017Z,24.12
2018-09-08T00:54:30.991Z,24.12
2018-09-08T00:55:02.583Z,24.12
2018-09-08T00:55:34.171Z,24.11
2018-09-08T00:56:05.755Z,24.12
2018-09-08T00:56:37.338Z,24.12
2018-09-08T00:57:08.910Z,24.12
2018-09-08T00:57:40.495Z,24.12
2018-09-08T00:58:12.080Z,24.12
2018-09-08T00:58:43.681Z,24.12
2018-09-08T00:59:15.285Z,24.11
2018-09-08T00:59:46.934Z,24.11
2018-09-08T01:00:18.584Z,24.10
2018-09-08T01:00:50.161Z,24.11
2018-09-08T01:01:21.748Z,24.12
2018-09-08T01:01:53.335Z,24.13
2018-09-08T01:02:24.927Z,24.13
2018-09-08T01:02:56.525Z,24.14
2018-09-08T01:03:28.117Z,24.13
2018-09-08T01:03:59.703Z,24.14
2018-09-08T01:04:31.302Z,24.13
2018-09-08T01:05:02.879Z,24.13
2018-09-08T01:05:34.463Z,24.15
2018-09-08T01:06:06.062Z,24.15
2018-09-08T01:06:37.653Z,24.14
2018-09-08T01:07:09.239Z,24.14
2018-09-08T01:07:40.813Z,24.13
2018-09-08T01:08:12.402Z,24.13
2018-09-08T01:08:43.987Z,24.13
2018-09-08T01:09:15.589Z,24.13
2018-09-08T01:09:47.197Z,24.12
2018-09-08T01:10:18.794Z,24.12
2018-09-08T01:10:50.379Z,24.11
2018-09-08T01:11:21.982Z,24.11
2018-09-08T01:11:53.572Z,24.11
2018-09-08T01:12:25.169Z,24.10
2018-09-08T01:12:56.741Z,24.10
2018-09-08T01:13:28.341Z,24.10
2018-09-08T01:13:59.940Z,24.09
2018-09-08T01:14:31.532Z,24.09
2018-09-08T01:15:03.174Z,24.09
2018-09-08T01:15:34.760Z,24.09
2018-09-08T01:16:06.351Z,24.09
2018-09-08T01:16:37.950Z,24.09
2018-09-08T01:17:09.557Z,24.10
2018-09-08T01:17:41.144Z,24.11
2018-09-08T01:18:12.748Z,24.10
2018-09-08T01:18:44.331Z,24.10
2018-09-08T01:19:15.933Z,24.09
2018-09-08T01:19:47.537Z,24.09
2018-09-08T01:20:19.168Z,24.11
2018-09-08T01:20:50.752Z,24.13
2018-09-08T01:21:22.339Z,24.15
2018-09-08T01:21:53.933Z,24.16
2018-09-08T01:22:25.519Z,24.15
2018-09-08T01:22:57.103Z,24.16
2018-09-08T01:23:28.687Z,24.17
2018-09-08T01:24:00.287Z,24.17
2018-09-08T01:24:31.881Z,24.15
2018-09-08T01:25:03.515Z,24.15
2018-09-08T01:25:35.101Z,24.15
2018-09-08T01:26:06.691Z,24.15
2018-09-08T01:26:38.265Z,24.16
2018-09-08T01:27:09.853Z,24.16
2018-09-08T01:27:41.440Z,24.17
2018-09-08T01:28:13.037Z,24.17
2018-09-08T01:28:44.663Z,24.17
2018-09-08T01:29:16.261Z,24.17
2018-09-08T01:29:47.838Z,24.18
2018-09-08T01:30:19.436Z,24.17
2018-09-08T01:30:51.085Z,24.17
2018-09-08T01:31:22.671Z,24.15
2018-09-08T01:31:54.265Z,24.17
2018-09-08T01:32:25.867Z,24.17
2018-09-08T01:32:57.474Z,24.16
2018-09-08T01:33:29.055Z,24.15
2018-09-08T01:34:00.653Z,24.16
2018-09-08T01:34:32.253Z,24.16
2018-09-08T01:35:03.842Z,24.15
2018-09-08T01:35:35.427Z,24.14
2018-09-08T01:36:07.038Z,24.13
2018-09-08T01:36:38.613Z,24.12
2018-09-08T01:37:10.191Z,24.12
2018-09-08T01:37:41.823Z,24.11
2018-09-08T01:38:13.407Z,24.10
2018-09-08T01:38:44.996Z,24.09
2018-09-08T01:39:16.593Z,24.09
2018-09-08T01:39:48.179Z,24.06
2018-09-08T01:40:19.777Z,24.10
2018-09-08T01:40:51.362Z,24.10
2018-09-08T01:41:22.968Z,24.10
2018-09-08T01:41:54.570Z,24.10
2018-09-08T01:42:26.170Z,24.11
2018-09-08T01:42:57.785Z,24.11
2018-09-08T01:43:29.385Z,24.10
2018-09-08T01:44:00.989Z,24.09
2018-09-08T01:44:32.613Z,24.09
2018-09-08T01:45:04.214Z,24.10
2018-09-08T01:45:35.818Z,24.09
2018-09-08T01:46:07.415Z,24.09
2018-09-08T01:46:39.004Z,24.09
2018-09-08T01:47:10.590Z,24.09
2018-09-08T01:47:42.174Z,24.10
2018-09-08T01:48:13.763Z,24.11
2018-09-08T01:48:45.366Z,24.12
2018-09-08T01:49:16.970Z,24.09
2018-09-08T01:49:48.613Z,24.12
2018-09-08T01:50:20.208Z,24.12
2018-09-08T01:50:51.791Z,24.12
2018-09-08T01:51:23.429Z,24.12
2018-09-08T01:51:55.029Z,24.11
2018-09-08T01:52:26.620Z,24.12
2018-09-08T01:52:58.211Z,24.11
2018-09-08T01:53:29.969Z,24.09
2018-09-08T01:54:01.798Z,24.08
2018-09-08T01:54:33.622Z,24.08
2018-09-08T01:55:05.241Z,24.07
2018-09-08T01:55:36.813Z,24.08
2018-09-08T01:56:08.396Z,24.07
2018-09-08T01:56:39.983Z,24.05
2018-09-08T01:57:11.581Z,24.05
2018-09-08T01:57:43.182Z,24.05
2018-09-08T01:58:14.771Z,24.03
2018-09-08T01:58:46.424Z,24.02
2018-09-08T01:59:17.987Z,24.02
2018-09-08T01:59:49.575Z,24.01
2018-09-08T02:00:21.200Z,24.01
2018-09-08T02:00:52.786Z,24.02
2018-09-08T02:01:24.393Z,24.02
2018-09-08T02:01:55.980Z,24.04
2018-09-08T02:02:27.573Z,24.05
2018-09-08T02:02:59.193Z,24.03
2018-09-08T02:03:30.793Z,24.01
2018-09-08T02:04:02.393Z,23.98
2018-09-08T02:04:33.979Z,23.94
2018-09-08T02:05:05.555Z,23.91
2018-09-08T02:05:37.143Z,23.90
2018-09-08T02:06:08.772Z,23.89
2018-09-08T02:06:40.471Z,23.87
2018-09-08T02:07:12.065Z,23.84
2018-09-08T02:07:43.648Z,23.80
2018-09-08T02:08:15.235Z,23.76
2018-09-08T02:08:46.811Z,23.72
2018-09-08T02:09:18.405Z,23.68
2018-09-08T02:09:49.991Z,23.63
2018-09-08T02:10:21.576Z,23.61
2018-09-08T02:10:53.170Z,23.57
2018-09-08T02:11:24.775Z,23.55
2018-09-08T02:11:56.378Z,23.52
2018-09-08T02:12:27.981Z,23.50
2018-09-08T02:12:59.585Z,23.48
2018-09-08T02:13:31.197Z,23.47
2018-09-08T02:14:02.783Z,23.46
2018-09-08T02:14:34.694Z,23.44
2018-09-08T02:15:06.269Z,23.44
2018-09-08T02:15:37.861Z,23.43
2018-09-08T02:16:09.466Z,23.42
2018-09-08T02:16:41.071Z,23.44
2018-09-08T02:17:12.704Z,23.53
2018-09-08T02:17:44.288Z,23.70
2018-09-08T02:18:15.913Z,23.80
2018-09-08T02:18:47.499Z,23.76
2018-09-08T02:19:19.083Z,23.76
2018-09-08T02:19:50.668Z,23.72
2018-09-08T02:20:22.252Z,23.69
2018-09-08T02:20:53.853Z,23.65
2018-09-08T02:21:25.453Z,23.65
2018-09-08T02:21:57.043Z,23.63
2018-09-08T02:22:28.627Z,23.59
2018-09-08T02:23:00.250Z,23.56
2018-09-08T02:23:31.875Z,23.52
2018-09-08T02:24:03.466Z,23.50
2018-09-08T02:24:35.060Z,23.47
2018-09-08T02:25:06.706Z,23.46
2018-09-08T02:25:38.309Z,23.44
2018-09-08T02:26:09.900Z,23.42
2018-09-08T02:26:41.494Z,23.39
2018-09-08T02:27:13.084Z,23.41
2018-09-08T02:27:44.685Z,23.38
2018-09-08T02:28:16.301Z,23.38
2018-09-08T02:28:47.887Z,23.37
2018-09-08T02:29:19.472Z,23.35
2018-09-08T02:29:51.064Z,23.35
2018-09-08T02:30:22.661Z,23.34
2018-09-08T02:30:54.262Z,23.31
2018-09-08T02:31:25.870Z,23.29
2018-09-08T02:31:57.455Z,23.29
2018-09-08T02:32:29.034Z,23.27
2018-09-08T02:33:00.669Z,23.27
2018-09-08T02:33:32.287Z,23.26
2018-09-08T02:34:03.881Z,23.23
2018-09-08T02:34:35.461Z,23.22
2018-09-08T02:35:07.108Z,23.21
2018-09-08T02:35:38.679Z,23.18
2018-09-08T02:36:10.321Z,23.16
2018-09-08T02:36:41.911Z,23.16
2018-09-08T02:37:13.497Z,23.14
2018-09-08T02:37:45.106Z,23.13
2018-09-08T02:38:16.705Z,23.12
2018-09-08T02:38:48.311Z,23.14
2018-09-08T02:39:19.940Z,23.12
2018-09-08T02:39:51.531Z,23.11
2018-09-08T02:40:23.115Z,23.11
2018-09-08T02:40:54.704Z,23.12
2018-09-08T02:41:26.273Z,23.11
2018-09-08T02:41:57.841Z,23.14
2018-09-08T02:42:29.431Z,23.13
2018-09-08T02:43:01.015Z,23.14
2018-09-08T02:43:32.639Z,23.14
2018-09-08T02:44:04.241Z,23.14
2018-09-08T02:44:35.821Z,23.02
2018-09-08T02:45:07.414Z,23.12
2018-09-08T02:45:39.054Z,23.13
2018-09-08T02:46:10.657Z,23.13
2018-09-08T02:46:42.244Z,23.13
2018-09-08T02:47:13.825Z,23.10
2018-09-08T02:47:45.408Z,23.13
2018-09-08T02:48:16.994Z,23.15
2018-09-08T02:48:48.605Z,23.17
2018-09-08T02:49:20.217Z,23.18
2018-09-08T02:49:51.828Z,23.16
2018-09-08T02:50:23.460Z,23.14
2018-09-08T02:50:55.044Z,23.12
2018-09-08T02:51:26.627Z,23.09
2018-09-08T02:51:58.225Z,23.07
2018-09-08T02:52:29.825Z,23.05
2018-09-08T02:53:01.422Z,23.02
2018-09-08T02:53:33.007Z,23.02
2018-09-08T02:54:04.605Z,23.01
2018-09-08T02:54:36.195Z,23.01
2018-09-08T02:55:07.798Z,23.01
2018-09-08T02:55:39.437Z,22.99
2018-09-08T02:56:11.023Z,22.99
2018-09-08T02:56:42.639Z,22.98
2018-09-08T02:57:14.226Z,22.98
2018-09-08T02:57:45.814Z,22.97
2018-09-08T02:58:17.414Z,22.95
2018-09-08T02:58:49.009Z,22.97
2018-09-08T02:59:20.610Z,22.99
2018-09-08T02:59:52.200Z,23.01
2018-09-08T03:00:23.784Z,23.02
2018-09-08T03:00:55.362Z,23.01
2018-09-08T03:01:26.955Z,23.02
2018-09-08T03:01:58.540Z,23.03
2018-09-08T03:02:30.142Z,23.04
2018-09-08T03:03:01.742Z,23.06
2018-09-08T03:03:33.335Z,23.07
2018-09-08T03:04:04.962Z,23.07
2018-09-08T03:04:36.557Z,23.05
2018-09-08T03:05:08.184Z,23.06
2018-09-08T03:05:39.777Z,23.06
2018-09-08T03:06:11.364Z,23.04
2018-09-08T03:06:42.947Z,23.02
2018-09-08T03:07:14.541Z,23.01
2018-09-08T03:07:46.136Z,23.00
2018-09-08T03:08:17.774Z,22.99
2018-09-08T03:08:49.374Z,23.00
2018-09-08T03:09:20.977Z,22.98
2018-09-08T03:09:52.564Z,22.98
2018-09-08T03:10:24.207Z,22.99
2018-09-08T03:10:55.791Z,23.00
2018-09-08T03:11:27.379Z,23.01
2018-09-08T03:11:58.963Z,23.01
2018-09-08T03:12:30.537Z,23.00
2018-09-08T03:13:02.126Z,23.01
2018-09-08T03:13:33.726Z,23.00
2018-09-08T03:14:05.312Z,23.01
2018-09-08T03:14:36.913Z,23.01
2018-09-08T03:15:08.510Z,23.01
2018-09-08T03:15:40.159Z,23.00
2018-09-08T03:16:11.757Z,23.02
2018-09-08T03:16:43.347Z,23.01
2018-09-08T03:17:14.932Z,23.02
2018-09-08T03:17:46.515Z,23.03
2018-09-08T03:18:18.103Z,23.03
2018-09-08T03:18:49.677Z,23.06
2018-09-08T03:19:21.277Z,23.07
2018-09-08T03:19:52.883Z,23.10
2018-09-08T03:20:24.472Z,23.12
2018-09-08T03:20:56.061Z,23.14
2018-09-08T03:21:27.657Z,23.15
2018-09-08T03:21:59.243Z,23.15
2018-09-08T03:22:30.827Z,23.13
2018-09-08T03:23:02.398Z,23.12
2018-09-08T03:23:34.042Z,23.13
2018-09-08T03:24:05.645Z,23.13
2018-09-08T03:24:37.231Z,23.12
2018-09-08T03:25:08.828Z,23.11
2018-09-08T03:25:40.401Z,23.09
2018-09-08T03:26:11.983Z,23.08
2018-09-08T03:26:43.572Z,23.06
2018-09-08T03:27:15.159Z,23.08
2018-09-08T03:27:46.788Z,23.08
2018-09-08T03:28:18.357Z,23.08
2018-09-08T03:28:49.956Z,23.07
2018-09-08T03:29:21.553Z,23.05
2018-09-08T03:29:53.140Z,23.05
2018-09-08T03:30:24.771Z,23.05
2018-09-08T03:30:56.355Z,23.04
2018-09-08T03:31:27.939Z,23.03
2018-09-08T03:31:59.531Z,23.04
2018-09-08T03:32:31.120Z,23.03
2018-09-08T03:33:02.705Z,23.02
2018-09-08T03:33:34.306Z,23.05
2018-09-08T03:34:05.905Z,23.06
2018-09-08T03:34:37.491Z,23.08
2018-09-08T03:35:09.118Z,23.09
2018-09-08T03:35:40.707Z,23.08
2018-09-08T03:36:12.310Z,23.08
2018-09-08T03:36:43.935Z,23.09
2018-09-08T03:37:15.510Z,23.08
2018-09-08T03:37:47.106Z,23.06
2018-09-08T03:38:18.699Z,23.03
2018-09-08T03:38:50.279Z,23.02
2018-09-08T03:39:21.893Z,23.01
2018-09-08T03:39:53.494Z,22.99
2018-09-08T03:40:25.098Z,22.97
2018-09-08T03:40:56.732Z,22.98
2018-09-08T03:41:28.329Z,22.99
2018-09-08T03:41:59.929Z,23.00
2018-09-08T03:42:31.515Z,22.98
2018-09-08T03:43:03.085Z,22.98
2018-09-08T03:43:34.686Z,22.96
2018-09-08T03:44:06.320Z,22.95
2018-09-08T03:44:37.888Z,23.00
2018-09-08T03:45:09.476Z,22.93
2018-09-08T03:45:41.103Z,22.90
2018-09-08T03:46:12.696Z,22.87
2018-09-08T03:46:44.283Z,22.87
2018-09-08T03:47:15.968Z,22.83
2018-09-08T03:47:47.569Z,22.76
2018-09-08T03:48:19.156Z,22.70
2018-09-08T03:48:50.744Z,22.75
2018-09-08T03:49:22.331Z,22.79
2018-09-08T03:49:53.910Z,22.81
2018-09-08T03:50:25.478Z,22.84
2018-09-08T03:50:57.067Z,22.86
2018-09-08T03:51:28.665Z,22.87
2018-09-08T03:52:00.255Z,22.87
2018-09-08T03:52:31.879Z,22.88
2018-09-08T03:53:03.463Z,22.88
2018-09-08T03:53:35.048Z,22.88
2018-09-08T03:54:06.620Z,22.88
2018-09-08T03:54:38.217Z,22.89
2018-09-08T03:55:09.803Z,22.89
2018-09-08T03:55:41.387Z,22.89
2018-09-08T03:56:12.975Z,22.88
2018-09-08T03:56:44.559Z,22.89
2018-09-08T03:57:16.187Z,22.88
2018-09-08T03:57:47.790Z,22.89
2018-09-08T03:58:19.389Z,22.86
2018-09-08T03:58:51.019Z,22.86
2018-09-08T03:59:22.631Z,22.84
2018-09-08T03:59:54.223Z,22.86
2018-09-08T04:00:25.819Z,22.84
2018-09-08T04:00:57.407Z,22.87
2018-09-08T04:01:29.001Z,22.86
2018-09-08T04:02:00.588Z,22.85
2018-09-08T04:02:32.177Z,22.84
2018-09-08T04:03:03.817Z,22.82
2018-09-08T04:03:35.407Z,22.82
2018-09-08T04:04:06.986Z,22.84
2018-09-08T04:04:38.593Z,22.82
2018-09-08T04:05:10.197Z,22.81
2018-09-08T04:05:41.869Z,22.82
2018-09-08T04:06:13.478Z,22.82
2018-09-08T04:06:45.067Z,22.81
2018-09-08T04:07:16.651Z,22.81
2018-09-08T04:07:48.249Z,22.81
2018-09-08T04:08:19.835Z,22.81
2018-09-08T04:08:51.419Z,22.81
2018-09-08T04:09:23.008Z,22.81
2018-09-08T04:09:54.597Z,22.80
2018-09-08T04:10:26.197Z,22.80
2018-09-08T04:10:57.786Z,22.80
2018-09-08T04:11:29.361Z,22.80
2018-09-08T04:12:00.948Z,22.81
2018-09-08T04:12:32.536Z,22.82
2018-09-08T04:13:04.164Z,22.81
2018-09-08T04:13:35.751Z,22.82
2018-09-08T04:14:07.347Z,22.83
2018-09-08T04:14:38.958Z,22.83
2018-09-08T04:15:10.563Z,22.84
2018-09-08T04:15:42.152Z,22.74
2018-09-08T04:16:13.753Z,22.84
2018-09-08T04:16:45.340Z,22.85
2018-09-08T04:17:16.917Z,22.86
2018-09-08T04:17:48.565Z,22.88
2018-09-08T04:18:20.278Z,22.86
2018-09-08T04:18:51.855Z,22.87
2018-09-08T04:19:23.449Z,22.87
2018-09-08T04:19:55.039Z,22.85
2018-09-08T04:20:26.627Z,22.83
2018-09-08T04:20:58.219Z,22.83
2018-09-08T04:21:29.808Z,22.80
2018-09-08T04:22:01.431Z,22.79
2018-09-08T04:22:33.015Z,22.79
2018-09-08T04:23:04.604Z,22.78
2018-09-08T04:23:36.217Z,22.77
2018-09-08T04:24:07.948Z,22.76
2018-09-08T04:24:39.445Z,22.76
2018-09-08T04:25:11.036Z,22.76
2018-09-08T04:25:42.641Z,22.74
2018-09-08T04:26:14.241Z,22.74
2018-09-08T04:26:45.843Z,22.72
2018-09-08T04:27:17.422Z,22.72
2018-09-08T04:27:49.048Z,22.71
2018-09-08T04:28:20.650Z,22.70
2018-09-08T04:28:52.239Z,22.70
2018-09-08T04:29:23.849Z,22.69
2018-09-08T04:29:55.489Z,22.69
2018-09-08T04:30:27.075Z,22.67
2018-09-08T04:30:58.669Z,22.66
2018-09-08T04:31:30.255Z,22.66
2018-09-08T04:32:01.839Z,22.65
2018-09-08T04:32:33.432Z,22.65
2018-09-08T04:33:05.021Z,22.65
2018-09-08T04:33:36.608Z,22.64
2018-09-08T04:34:08.311Z,22.63
2018-09-08T04:34:39.914Z,22.62
2018-09-08T04:35:11.518Z,22.60
2018-09-08T04:35:43.122Z,22.61
2018-09-08T04:36:14.707Z,22.61
2018-09-08T04:36:46.296Z,22.61
2018-09-08T04:37:17.893Z,22.61
2018-09-08T04:37:49.489Z,22.61
2018-09-08T04:38:21.075Z,22.61
2018-09-08T04:38:52.678Z,22.61
2018-09-08T04:39:24.256Z,22.61
2018-09-08T04:39:55.839Z,22.60
2018-09-08T04:40:27.423Z,22.60
2018-09-08T04:40:59.004Z,22.59
2018-09-08T04:41:30.621Z,22.61
2018-09-08T04:42:02.230Z,22.62
2018-09-08T04:42:33.860Z,22.63
2018-09-08T04:43:05.448Z,22.62
2018-09-08T04:43:37.036Z,22.61
2018-09-08T04:44:08.647Z,22.60
2018-09-08T04:44:40.292Z,22.60
2018-09-08T04:45:11.869Z,22.58
2018-09-08T04:45:43.469Z,22.57
2018-09-08T04:46:15.056Z,22.59
2018-09-08T04:46:46.646Z,22.58
2018-09-08T04:47:18.241Z,22.58
2018-09-08T04:47:49.828Z,22.59
2018-09-08T04:48:21.415Z,22.58
2018-09-08T04:48:52.999Z,22.58
2018-09-08T04:49:24.573Z,22.58
2018-09-08T04:49:56.159Z,22.58
2018-09-08T04:50:27.747Z,22.58
2018-09-08T04:50:59.361Z,22.59
2018-09-08T04:51:30.970Z,22.58
2018-09-08T04:52:02.559Z,22.56
2018-09-08T04:52:34.143Z,22.60
2018-09-08T04:53:05.742Z,22.59
2018-09-08T04:53:37.346Z,22.62
2018-09-08T04:54:08.935Z,22.63
2018-09-08T04:54:40.526Z,22.65
2018-09-08T04:55:12.111Z,22.66
2018-09-08T04:55:43.682Z,22.67
2018-09-08T04:56:15.317Z,22.63
2018-09-08T04:56:46.917Z,22.65
2018-09-08T04:57:18.507Z,22.65
2018-09-08T04:57:50.092Z,22.65
2018-09-08T04:58:21.680Z,22.64
2018-09-08T04:58:53.274Z,22.62
2018-09-08T04:59:24.869Z,22.61
2018-09-08T04:59:56.456Z,22.60
2018-09-08T05:00:28.053Z,22.59
2018-09-08T05:00:59.654Z,22.58
2018-09-08T05:01:31.241Z,22.57
2018-09-08T05:02:02.861Z,22.56
2018-09-08T05:02:34.523Z,22.55
2018-09-08T05:03:06.079Z,22.54
2018-09-08T05:03:37.663Z,22.54
2018-09-08T05:04:09.258Z,22.53
2018-09-08T05:04:40.841Z,22.53
2018-09-08T05:05:12.431Z,22.52
2018-09-08T05:05:44.015Z,22.52
2018-09-08T05:06:15.590Z,22.49
2018-09-08T05:06:47.172Z,22.48
2018-09-08T05:07:18.759Z,22.48
2018-09-08T05:07:50.343Z,22.47
2018-09-08T05:08:21.917Z,22.44
2018-09-08T05:08:53.554Z,22.44
2018-09-08T05:09:25.173Z,22.44
2018-09-08T05:09:56.752Z,22.41
2018-09-08T05:10:28.357Z,22.43
2018-09-08T05:10:59.942Z,22.43
2018-09-08T05:11:31.521Z,22.43
2018-09-08T05:12:03.117Z,22.48
2018-09-08T05:12:34.999Z,22.50
2018-09-08T05:13:06.768Z,22.53
2018-09-08T05:13:38.607Z,22.55
2018-09-08T05:14:10.587Z,22.56
2018-09-08T05:14:42.183Z,22.56
2018-09-08T05:15:13.808Z,22.56
2018-09-08T05:15:45.399Z,22.55
2018-09-08T05:16:16.993Z,22.55
2018-09-08T05:16:48.580Z,22.52
2018-09-08T05:17:20.225Z,22.48
2018-09-08T05:17:51.799Z,22.51
2018-09-08T05:18:23.388Z,22.51
2018-09-08T05:18:54.972Z,22.49
2018-09-08T05:19:26.562Z,22.48
2018-09-08T05:19:58.156Z,22.49
2018-09-08T05:20:29.740Z,22.50
2018-09-08T05:21:01.322Z,22.52
2018-09-08T05:21:32.915Z,22.51
2018-09-08T05:22:04.486Z,22.51
2018-09-08T05:22:36.084Z,22.51
2018-09-08T05:23:07.687Z,22.51
2018-09-08T05:23:39.288Z,22.51
2018-09-08T05:24:10.878Z,22.50
2018-09-08T05:24:42.467Z,22.51
2018-09-08T05:25:14.056Z,22.50
2018-09-08T05:25:45.661Z,22.50
2018-09-08T05:26:17.305Z,22.50
2018-09-08T05:26:48.891Z,22.50
2018-09-08T05:27:20.465Z,22.49
2018-09-08T05:27:52.053Z,22.49
2018-09-08T05:28:23.664Z,22.50
2018-09-08T05:28:55.266Z,22.49
2018-09-08T05:29:26.866Z,22.49
2018-09-08T05:29:58.452Z,22.49
2018-09-08T05:30:30.049Z,22.50
2018-09-08T05:31:01.676Z,22.50
2018-09-08T05:31:33.304Z,22.50
2018-09-08T05:32:04.887Z,22.51
2018-09-08T05:32:36.522Z,22.53
2018-09-08T05:33:08.112Z,22.55
2018-09-08T05:33:39.717Z,22.56
2018-09-08T05:34:11.307Z,22.57
2018-09-08T05:34:42.892Z,22.57
2018-09-08T05:35:14.516Z,22.56
2018-09-08T05:35:46.090Z,22.59
2018-09-08T05:36:17.676Z,22.60
2018-09-08T05:36:49.280Z,22.59
2018-09-08T05:37:20.877Z,22.58
2018-09-08T05:37:52.470Z,22.58
2018-09-08T05:38:24.064Z,22.57
2018-09-08T05:38:55.700Z,22.56
2018-09-08T05:39:27.286Z,22.56
2018-09-08T05:39:58.881Z,22.56
2018-09-08T05:40:30.481Z,22.57
2018-09-08T05:41:02.077Z,22.58
2018-09-08T05:41:33.663Z,22.57
2018-09-08T05:42:05.291Z,22.48
2018-09-08T05:42:36.879Z,22.58
2018-09-08T05:43:08.508Z,22.57
2018-09-08T05:43:40.102Z,22.59
2018-09-08T05:44:11.719Z,22.61
2018-09-08T05:44:43.297Z,22.61
2018-09-08T05:45:14.915Z,22.62
2018-09-08T05:45:46.509Z,22.63
2018-09-08T05:46:18.118Z,22.64
2018-09-08T05:46:49.713Z,22.64
2018-09-08T05:47:21.309Z,22.64
2018-09-08T05:47:52.886Z,22.64
2018-09-08T05:48:24.508Z,22.62
2018-09-08T05:48:56.160Z,22.63
2018-09-08T05:49:27.704Z,22.58
2018-09-08T05:49:59.288Z,22.57
2018-09-08T05:50:30.885Z,22.57
2018-09-08T05:51:02.490Z,22.54
2018-09-08T05:51:34.083Z,22.51
2018-09-08T05:52:05.671Z,22.52
2018-09-08T05:52:37.254Z,22.49
2018-09-08T05:53:08.854Z,22.50
2018-09-08T05:53:40.478Z,22.50
2018-09-08T05:54:12.080Z,22.49
2018-09-08T05:54:43.756Z,22.51
2018-09-08T05:55:15.356Z,22.51
2018-09-08T05:55:47.127Z,22.50
2018-09-08T05:56:18.732Z,22.49
2018-09-08T05:56:50.349Z,22.49
2018-09-08T05:57:21.968Z,22.50
2018-09-08T05:57:53.580Z,22.50
2018-09-08T05:58:25.190Z,22.49
2018-09-08T05:58:56.835Z,22.48
2018-09-08T05:59:28.417Z,22.48
2018-09-08T06:00:00.021Z,22.48
2018-09-08T06:00:31.609Z,22.49
2018-09-08T06:01:03.215Z,22.51
2018-09-08T06:01:34.931Z,22.52
2018-09-08T06:02:06.607Z,22.52
2018-09-08T06:02:38.242Z,22.50
2018-09-08T06:03:09.853Z,22.51
2018-09-08T06:03:41.457Z,22.51
2018-09-08T06:04:13.029Z,22.50
2018-09-08T06:04:44.615Z,22.51
2018-09-08T06:05:16.203Z,22.51
2018-09-08T06:05:47.788Z,22.52
2018-09-08T06:06:50.686Z,22.55
2018-09-08T06:07:22.326Z,22.55
2018-09-08T06:07:53.933Z,22.54
2018-09-08T06:08:25.520Z,22.54
2018-09-08T06:09:28.306Z,22.52
2018-09-08T06:09:59.891Z,22.53
2018-09-08T06:10:31.486Z,22.54
2018-09-08T06:11:03.117Z,22.55
2018-09-08T06:11:34.713Z,22.55
2018-09-08T06:12:06.306Z,22.57
2018-09-08T06:12:37.936Z,22.57
2018-09-08T06:13:09.524Z,22.57
2018-09-08T06:13:41.111Z,22.57
2018-09-08T06:14:12.804Z,22.57
2018-09-08T06:14:44.384Z,22.55
2018-09-08T06:15:15.979Z,22.55
2018-09-08T06:15:47.581Z,22.55
2018-09-08T06:16:19.185Z,22.57
2018-09-08T06:16:50.771Z,22.58
2018-09-08T06:17:22.435Z,22.58
2018-09-08T06:17:54.030Z,22.60
2018-09-08T06:18:25.645Z,22.63
2018-09-08T06:18:57.230Z,22.67
2018-09-08T06:19:28.857Z,22.68
2018-09-08T06:20:00.474Z,22.69
2018-09-08T06:20:32.130Z,22.70
2018-09-08T06:21:03.730Z,22.72
2018-09-08T06:21:35.328Z,22.73
2018-09-08T06:22:06.929Z,22.74
2018-09-08T06:22:38.521Z,22.74
2018-09-08T06:23:10.112Z,22.73
2018-09-08T06:23:41.734Z,22.75
2018-09-08T06:24:13.333Z,22.75
2018-09-08T06:24:44.958Z,22.75
2018-09-08T06:25:16.560Z,22.74
2018-09-08T06:25:48.174Z,22.74
2018-09-08T06:26:19.785Z,22.74
2018-09-08T06:26:51.372Z,22.74
2018-09-08T06:27:22.946Z,22.72
2018-09-08T06:27:54.604Z,22.71
2018-09-08T06:28:26.234Z,22.68
2018-09-08T06:28:57.822Z,22.70
2018-09-08T06:29:29.421Z,22.70
2018-09-08T06:30:01.021Z,22.70
2018-09-08T06:30:32.611Z,22.67
2018-09-08T06:31:04.199Z,22.67
2018-09-08T06:31:35.787Z,22.68
2018-09-08T06:32:07.385Z,22.68
2018-09-08T06:32:38.984Z,22.68
2018-09-08T06:33:10.621Z,22.65
2018-09-08T06:33:42.274Z,22.67
2018-09-08T06:34:13.894Z,22.71
2018-09-08T06:34:45.503Z,22.74
2018-09-08T06:35:17.232Z,22.75
2018-09-08T06:35:48.742Z,22.77
2018-09-08T06:36:20.328Z,22.80
2018-09-08T06:36:52.457Z,22.81
2018-09-08T06:37:24.061Z,22.83
2018-09-08T06:37:55.668Z,22.83
2018-09-08T06:38:27.237Z,22.85
2018-09-08T06:38:58.823Z,22.87
2018-09-08T06:39:30.408Z,22.88
2018-09-08T06:40:01.986Z,22.90
2018-09-08T06:40:33.586Z,22.95
2018-09-08T06:41:05.180Z,22.93
2018-09-08T06:41:36.962Z,22.93
2018-09-08T06:42:08.553Z,22.89
2018-09-08T06:42:40.135Z,22.84
2018-09-08T06:43:11.720Z,22.79
2018-09-08T06:43:43.321Z,22.74
2018-09-08T06:44:14.975Z,22.71
2018-09-08T06:44:46.586Z,22.69
2018-09-08T06:45:18.216Z,22.72
2018-09-08T06:45:49.789Z,22.73
2018-09-08T06:46:21.372Z,22.75
2018-09-08T06:46:52.959Z,22.75
2018-09-08T06:47:24.542Z,22.74
2018-09-08T06:47:56.141Z,22.75
2018-09-08T06:48:27.728Z,22.77
2018-09-08T06:48:59.321Z,22.77
2018-09-08T06:49:30.966Z,22.78